KALX/ALX METAR and TAF weather

Enter ICAO airport designator
Station Type Date Time Source
KALX METAR 2018/12/12 23:55 UTC NOAA

KALX 122355Z AUTO 00000KT 10SM CLR 06/05 A3019 RMK AO2 T00560045 10116 20055


Station Type Date Time Source
KALX Decoded METAR 2018/12/12 23:55 UTC NOAA

Alexander City, Thomas C Russell Field Airport, AL, United States (KALX) 32-54-53N 085-57-46W
Dec 12, 2018 - 06:55 PM EST / 2018.12.12 2355 UTC
Wind: Calm:0
Visibility: 10 mile(s):0
Sky conditions: clear
Temperature: 42.1 F (5.6 C)
Dew Point: 40.1 F (4.5 C)
Relative Humidity: 92%
Pressure (altimeter): 30.19 in. Hg (1022 hPa)
ob: KALX 122355Z AUTO 00000KT 10SM CLR 06/05 A3019 RMK AO2 T00560045 10116 20055
cycle: 0

Station Type Date Time Source
KALX TAF UTC NOAA

Error!


Example: see airport list